LFQQ 210400Z AUTO 29005KT 9999 FEW019 SCT041 BKN049 01/00 Q1036 TEMPO 4000 SHRA BKN013

ElémentsDécodage
LFQQ Station météo située sur l'aérodrome de LILLE Lesquin
210400Z émis le 21 du mois à 04h00 UTC
AUTO Bulletin édité par un automate
29005KT vent du 290°, 05 noeuds
9999 visibilité horizontale supérieure à 10 Km
FEW019 nuages rares (1/8 à 2/8) à 1900 pieds
SCT041 nuages épars (3/8 à 4/8) à 4100 pieds
BKN049 nuages morcelés (5/8 à 7/8) à 4900 pieds
01/00 température 01°C, point de rosée 00°C
 soit une humidité relative de 93%
Q1036 la pression au niveau de la mer (QNH) est de 1036 hPa
TEMPO fluctuation temporaire prévue
4000 visibilité horizontale de 4000 mètres
SHRA averse(s) de pluie
BKN013 nuages morcelés (5/8 à 7/8) à 1300 pieds